Time;durP1;ratioP1;P1;durP2;ratioP2;P2;SDS_P1;SDS_P2;PMS_P1;PMS_P2;Temp;Humidity;BMP_temperature;BMP_pressure;BME280_temperature;BME280_humidity;BME280_pressure;Samples;Min_cycle;Max_cycle;Signal;HPM_P1;HPM_P2
2023/04/07 00:01:31;;;;;;;40.80;13.80;;;;;;;7.76;100.00;101423.34;5003702;28;20109;-93
2023/04/07 00:03:56;;;;;;;31.25;13.25;;;;;;;7.85;100.00;101438.75;5003481;28;20434;-92
2023/04/07 00:06:22;;;;;;;32.45;13.35;;;;;;;7.84;100.00;101433.63;5007928;28;20530;-91
2023/04/07 00:08:47;;;;;;;32.53;12.52;;;;;;;7.74;100.00;101425.03;4990578;28;20504;-91
2023/04/07 00:11:13;;;;;;;32.15;13.52;;;;;;;7.85;100.00;101438.75;5008006;28;20204;-92
2023/04/07 00:13:38;;;;;;;32.25;13.07;;;;;;;7.78;100.00;101434.47;5008790;28;20393;-92
2023/04/07 00:16:06;;;;;;;34.60;13.55;;;;;;;7.82;100.00;101440.50;4989942;28;20064;-91
2023/04/07 00:18:31;;;;;;;37.55;14.23;;;;;;;7.83;100.00;101440.50;5008545;28;20041;-93
2023/04/07 00:20:57;;;;;;;32.72;14.02;;;;;;;7.75;100.00;101434.50;5008698;28;20454;-91
2023/04/07 00:23:25;;;;;;;36.22;14.88;;;;;;;7.82;100.00;101443.94;5007133;28;20040;-93
2023/04/07 00:25:51;;;;;;;41.05;14.90;;;;;;;7.78;100.00;101428.50;4990346;28;20305;-93
2023/04/07 00:28:16;;;;;;;37.75;15.35;;;;;;;7.79;100.00;101433.63;4990185;28;20604;-93
2023/04/07 00:30:42;;;;;;;36.83;14.20;;;;;;;7.77;100.00;101431.94;4989777;28;20030;-93
2023/04/07 00:33:07;;;;;;;35.55;14.68;;;;;;;7.73;100.00;101420.75;4989917;28;20461;-93
2023/04/07 00:35:33;;;;;;;43.03;15.45;;;;;;;7.74;100.00;101430.22;5007730;28;20068;-92
2023/04/07 00:37:58;;;;;;;40.40;15.07;;;;;;;7.75;100.00;101433.66;4989979;28;20608;-93
2023/04/07 00:40:24;;;;;;;36.47;14.00;;;;;;;7.70;100.00;101431.09;5007840;28;20080;-93
2023/04/07 00:42:49;;;;;;;33.30;14.10;;;;;;;7.66;100.00;101415.59;5008708;28;20048;-92
2023/04/07 00:45:15;;;;;;;28.73;12.88;;;;;;;7.69;100.00;101429.38;4988855;28;20041;-92
2023/04/07 00:47:40;;;;;;;34.10;12.68;;;;;;;7.72;100.00;101439.66;5006931;28;20034;-92
2023/04/07 00:50:06;;;;;;;30.85;12.88;;;;;;;7.65;100.00;101431.94;5007843;28;20058;-94
2023/04/07 00:52:32;;;;;;;31.58;12.48;;;;;;;7.69;100.00;101446.56;5007095;28;20196;-92
2023/04/07 00:55:01;;;;;;;29.55;11.48;;;;;;;7.61;100.00;101436.25;4988803;28;20029;-92
2023/04/07 00:57:26;;;;;;;21.70;9.77;;;;;;;7.62;100.00;101437.13;4988840;28;20037;-93
2023/04/07 00:59:53;;;;;;;29.95;10.38;;;;;;;7.50;100.00;101423.41;5007829;28;20033;-92
2023/04/07 01:02:35;;;;;;;25.00;10.05;;;;;;;7.58;100.00;101443.13;4989461;28;20030;-93
2023/04/07 01:05:07;;;;;;;18.23;9.23;;;;;;;7.51;100.00;101434.53;5006827;28;20417;-92
2023/04/07 01:07:54;;;;;;;19.30;8.85;;;;;;;7.44;100.00;101423.38;4989883;28;20029;-92
2023/04/07 01:10:29;;;;;;;22.98;8.82;;;;;;;7.47;100.00;101438.88;5007180;28;20033;-93
2023/04/07 01:13:08;;;;;;;23.20;8.82;;;;;;;7.49;100.00;101442.31;5008237;28;20116;-93
2023/04/07 01:15:35;;;;;;;19.98;8.48;;;;;;;7.47;100.00;101441.44;5007064;28;20113;-93
2023/04/07 01:18:22;;;;;;;22.10;8.48;;;;;;;7.49;100.00;101438.88;5008766;28;20036;-92
2023/04/07 01:20:50;;;;;;;22.63;7.82;;;;;;;7.48;100.00;101443.16;5007509;28;20386;-91
2023/04/07 01:24:13;;;;;;;15.77;7.20;;;;;;;7.36;100.00;101424.28;5007432;28;20033;-92
2023/04/07 01:26:39;;;;;;;23.15;7.25;;;;;;;7.30;100.00;101419.97;4904011;28;20449;-93
2023/04/07 01:29:43;;;;;;;15.13;6.88;;;;;;;7.42;100.00;101447.47;5006904;28;20030;-92
2023/04/07 01:32:12;;;;;;;19.50;6.43;;;;;;;7.37;100.00;101447.47;4988864;28;20029;-93
2023/04/07 01:34:39;;;;;;;17.63;5.97;;;;;;;7.23;100.00;101428.59;5006662;28;20025;-93
2023/04/07 01:37:06;;;;;;;15.30;6.00;;;;;;;7.22;100.00;101434.59;5007600;28;20101;-93
2023/04/07 01:39:33;;;;;;;16.90;6.35;;;;;;;7.24;100.00;101448.34;5006128;28;20159;-92
2023/04/07 01:42:01;;;;;;;15.18;5.97;;;;;;;7.19;100.00;101444.91;5006378;28;20033;-92
2023/04/07 01:44:27;;;;;;;18.77;6.38;;;;;;;7.13;100.00;101439.75;4987729;28;20115;-92
2023/04/07 01:46:54;;;;;;;17.60;6.20;;;;;;;7.10;100.00;101432.88;4985986;28;20034;-92
2023/04/07 01:49:20;;;;;;;17.58;6.60;;;;;;;7.22;100.00;101457.81;5006467;28;20021;-92
2023/04/07 01:51:50;;;;;;;19.27;6.43;;;;;;;7.11;100.00;101441.47;4988680;28;20057;-93
2023/04/07 01:54:17;;;;;;;16.27;6.13;;;;;;;7.11;100.00;101444.91;5006784;28;20026;-92
2023/04/07 01:56:43;;;;;;;16.00;6.18;;;;;;;7.10;100.00;101453.50;4989186;28;20022;-93
2023/04/07 01:59:09;;;;;;;20.08;6.53;;;;;;;7.07;100.00;101456.06;5007293;28;20030;-94
2023/04/07 02:01:35;;;;;;;16.77;6.28;;;;;;;7.08;100.00;101455.22;4988042;28;20033;-93
2023/04/07 02:04:10;;;;;;;15.60;5.93;;;;;;;7.11;100.00;101465.53;4989875;28;20141;-92
2023/04/07 02:06:43;;;;;;;15.27;6.20;;;;;;;7.06;100.00;101446.63;4989406;28;20030;-92
2023/04/07 02:09:11;;;;;;;14.05;5.70;;;;;;;7.09;100.00;101469.84;4988860;28;20040;-92
2023/04/07 02:11:40;;;;;;;12.95;5.65;;;;;;;7.12;100.00;101467.25;5007302;28;20033;-92
2023/04/07 02:14:07;;;;;;;15.25;5.85;;;;;;;7.02;100.00;101451.78;4988001;28;20022;-92
2023/04/07 02:16:34;;;;;;;12.98;5.50;;;;;;;7.02;100.00;101459.53;4988103;28;20033;-92
2023/04/07 02:19:01;;;;;;;12.10;4.90;;;;;;;7.06;100.00;101469.81;4989701;28;20033;-92
2023/04/07 02:21:29;;;;;;;14.15;4.82;;;;;;;7.12;100.00;101468.97;4988957;28;20509;-93
2023/04/07 02:23:54;;;;;;;13.13;5.10;;;;;;;7.12;100.00;101479.28;5005952;28;20071;-93
2023/04/07 02:26:20;;;;;;;12.38;4.78;;;;;;;7.11;100.00;101483.56;5006057;28;20030;-92
2023/04/07 02:28:45;;;;;;;14.02;5.50;;;;;;;7.12;100.00;101487.88;4987188;28;20484;-92
2023/04/07 02:31:12;;;;;;;11.88;4.88;;;;;;;7.11;100.00;101482.69;5005614;28;20028;-92
2023/04/07 02:33:40;;;;;;;14.73;5.63;;;;;;;7.10;100.00;101475.81;4987584;28;20609;-91
2023/04/07 02:36:05;;;;;;;18.20;6.47;;;;;;;7.12;100.00;101479.28;4987881;28;20494;-92
2023/04/07 02:38:31;;;;;;;18.73;6.35;;;;;;;7.07;100.00;101474.13;5006730;28;20092;-93
2023/04/07 02:40:57;;;;;;;14.82;6.47;;;;;;;7.14;100.00;101481.00;4988368;28;20028;-93
2023/04/07 02:43:24;;;;;;;15.18;6.00;;;;;;;7.04;100.00;101463.78;4995857;28;20081;-92
2023/04/07 02:45:49;;;;;;;18.63;6.28;;;;;;;7.13;100.00;101474.13;5019055;28;20057;-92
2023/04/07 02:48:15;;;;;;;17.65;6.55;;;;;;;7.05;100.00;101462.09;5019557;28;20033;-92
2023/04/07 02:50:40;;;;;;;17.95;5.78;;;;;;;7.16;100.00;101483.59;4996768;28;20038;-92
2023/04/07 02:53:06;;;;;;;19.08;5.80;;;;;;;7.13;100.00;101471.53;5023476;28;20038;-92
2023/04/07 02:55:31;;;;;;;17.35;5.88;;;;;;;7.06;100.00;101456.06;5008587;28;20112;-93
2023/04/07 02:57:57;;;;;;;18.30;6.30;;;;;;;7.13;100.00;101473.25;4987035;28;20200;-93
2023/04/07 03:00:24;;;;;;;16.45;6.13;;;;;;;7.12;100.00;101469.81;4987374;28;20056;-92
2023/04/07 03:02:50;;;;;;;14.48;5.43;;;;;;;7.10;100.00;101461.22;5005184;28;20045;-93
2023/04/07 03:05:15;;;;;;;17.38;5.63;;;;;;;7.14;100.00;101469.84;4987199;28;20025;-92
2023/04/07 03:07:41;;;;;;;15.63;5.75;;;;;;;7.10;100.00;101461.22;4987803;28;20021;-93
2023/04/07 03:10:06;;;;;;;17.92;6.05;;;;;;;7.08;100.00;101457.81;5003915;28;20053;-92
2023/04/07 03:12:37;;;;;;;17.98;6.18;;;;;;;7.15;100.00;101468.97;4986957;28;20053;-93
2023/04/07 03:15:06;;;;;;;13.98;5.88;;;;;;;7.05;100.00;101456.94;5005969;28;20402;-93
2023/04/07 03:17:32;;;;;;;17.85;5.88;;;;;;;7.09;100.00;101467.25;5004736;28;20030;-93
2023/04/07 03:19:58;;;;;;;19.10;6.35;;;;;;;7.14;100.00;101477.56;5005441;28;20075;-93
2023/04/07 03:22:26;;;;;;;15.23;5.93;;;;;;;7.11;100.00;101475.84;4986839;28;20053;-93
2023/04/07 03:24:52;;;;;;;14.63;5.78;;;;;;;7.12;100.00;101477.56;4987177;28;20514;-93
2023/04/07 03:27:19;;;;;;;14.63;5.75;;;;;;;7.07;100.00;101468.97;5005667;28;20053;-92
2023/04/07 03:29:45;;;;;;;16.75;6.00;;;;;;;7.15;100.00;101479.28;5004660;28;20026;-93
2023/04/07 03:32:11;;;;;;;15.18;5.78;;;;;;;7.16;100.00;101485.31;5004842;28;20417;-91
2023/04/07 03:34:36;;;;;;;15.85;5.97;;;;;;;7.12;100.00;101477.56;4984762;28;20025;-91
2023/04/07 03:37:02;;;;;;;16.35;6.07;;;;;;;7.09;100.00;101471.56;5004621;28;20104;-91
2023/04/07 03:39:27;;;;;;;18.05;6.05;;;;;;;7.16;100.00;101480.16;4985469;28;20065;-91
2023/04/07 03:41:52;;;;;;;17.95;5.78;;;;;;;7.10;100.00;101480.97;4985319;28;20486;-91
2023/04/07 03:44:18;;;;;;;22.85;6.03;;;;;;;7.07;100.00;101468.09;5003683;28;20077;-93
2023/04/07 03:46:44;;;;;;;15.07;5.70;;;;;;;7.12;100.00;101484.44;4986461;28;20033;-91
2023/04/07 03:49:10;;;;;;;16.75;6.30;;;;;;;7.07;100.00;101473.25;5004362;28;20113;-93
2023/04/07 03:51:35;;;;;;;17.40;5.93;;;;;;;7.07;100.00;101475.84;5004689;28;20053;-92
2023/04/07 03:54:01;;;;;;;17.52;5.93;;;;;;;7.13;100.00;101489.59;5004124;28;20030;-92
2023/04/07 03:56:27;;;;;;;19.08;6.03;;;;;;;7.03;100.00;101477.53;4985791;28;20367;-92
2023/04/07 03:58:52;;;;;;;13.23;6.00;;;;;;;7.06;100.00;101480.13;5002718;28;20022;-93
2023/04/07 04:01:18;;;;;;;15.68;6.00;;;;;;;7.11;100.00;101490.44;5003820;28;20029;-92
2023/04/07 04:03:43;;;;;;;18.67;6.20;;;;;;;7.04;100.00;101474.09;5004703;28;20156;-92
2023/04/07 04:06:09;;;;;;;21.35;6.45;;;;;;;7.07;100.00;101492.16;4985524;28;20497;-92
2023/04/07 04:08:34;;;;;;;18.40;6.30;;;;;;;7.12;100.00;101492.16;4985005;28;20124;-93
2023/04/07 04:10:59;;;;;;;17.35;6.22;;;;;;;7.06;100.00;101481.84;4984665;28;20041;-93
2023/04/07 04:13:25;;;;;;;21.73;5.53;;;;;;;7.05;100.00;101477.53;5003846;28;20046;-92
2023/04/07 04:15:51;;;;;;;21.52;6.07;;;;;;;7.07;100.00;101488.72;5004497;28;20330;-93
2023/04/07 04:18:16;;;;;;;17.45;6.28;;;;;;;7.06;100.00;101477.56;4985693;28;20136;-92
2023/04/07 04:20:42;;;;;;;17.40;5.90;;;;;;;7.11;100.00;101490.44;4985441;28;20022;-92
2023/04/07 04:23:10;;;;;;;16.27;6.07;;;;;;;7.07;100.00;101484.44;4984661;28;20022;-91
2023/04/07 04:25:38;;;;;;;21.17;6.72;;;;;;;7.04;100.00;101479.25;5002360;28;20105;-91
2023/04/07 04:28:04;;;;;;;15.93;5.80;;;;;;;7.09;100.00;101490.47;5001087;28;20033;-92
2023/04/07 04:30:29;;;;;;;14.05;6.07;;;;;;;7.06;100.00;101480.13;5001662;28;20562;-90
2023/04/07 04:32:55;;;;;;;18.73;6.10;;;;;;;7.05;100.00;101485.28;4985007;28;20717;-90
2023/04/07 04:35:20;;;;;;;20.02;6.05;;;;;;;7.03;100.00;101479.25;4984815;28;20368;-91
2023/04/07 04:37:46;;;;;;;18.38;5.85;;;;;;;7.01;100.00;101487.00;5003007;28;20029;-90
2023/04/07 04:40:14;;;;;;;22.70;6.00;;;;;;;6.97;100.00;101487.84;5003594;28;20034;-89
2023/04/07 04:42:40;;;;;;;18.38;6.10;;;;;;;7.03;100.00;101505.88;4982373;28;20046;-91
2023/04/07 04:45:06;;;;;;;18.10;5.30;;;;;;;6.98;100.00;101502.44;4981538;28;20040;-92
2023/04/07 04:47:40;;;;;;;22.00;6.22;;;;;;;6.97;100.00;101505.88;5003478;28;20038;-90
2023/04/07 04:50:06;;;;;;;18.33;5.97;;;;;;;6.95;100.00;101517.94;5000902;28;20036;-89
2023/04/07 04:52:34;;;;;;;20.02;6.40;;;;;;;6.93;100.00;101514.47;5006425;28;20388;-91
2023/04/07 04:55:03;;;;;;;20.70;6.43;;;;;;;6.99;100.00;101511.91;5007222;28;20450;-92
2023/04/07 04:57:29;;;;;;;21.58;6.60;;;;;;;6.92;100.00;101502.44;4988907;28;20042;-90
2023/04/07 04:59:54;;;;;;;22.50;6.18;;;;;;;6.98;100.00;101528.22;5006640;28;20080;-90
2023/04/07 05:02:20;;;;;;;23.08;6.32;;;;;;;6.86;100.00;101497.28;5005801;28;20022;-90
2023/04/07 05:04:46;;;;;;;19.60;6.53;;;;;;;6.97;100.00;101525.63;5006768;28;20105;-90
2023/04/07 05:07:14;;;;;;;23.15;6.60;;;;;;;6.93;100.00;101522.22;4987449;28;20042;-91
2023/04/07 05:09:39;;;;;;;23.17;6.38;;;;;;;6.94;100.00;101520.50;5007017;28;20029;-92
2023/04/07 05:12:05;;;;;;;19.35;6.47;;;;;;;6.98;100.00;101538.53;5006594;28;20096;-92
2023/04/07 05:14:30;;;;;;;23.35;7.10;;;;;;;6.95;100.00;101522.22;4990040;28;20380;-93
2023/04/07 05:16:56;;;;;;;19.23;6.28;;;;;;;6.93;100.00;101518.78;4988665;28;20076;-92
2023/04/07 05:19:21;;;;;;;28.50;7.80;;;;;;;6.97;100.00;101523.06;5006134;28;20036;-91
2023/04/07 05:21:49;;;;;;;27.90;7.20;;;;;;;6.99;100.00;101529.09;5006850;28;20112;-92
2023/04/07 05:24:14;;;;;;;26.52;6.50;;;;;;;6.97;100.00;101512.75;4988391;28;20034;-92
2023/04/07 05:26:40;;;;;;;21.13;6.93;;;;;;;6.98;100.00;101510.19;5006141;28;20296;-92
2023/04/07 05:29:05;;;;;;;23.88;6.78;;;;;;;7.05;100.00;101527.38;4988782;28;20456;-91
2023/04/07 05:31:30;;;;;;;23.05;6.82;;;;;;;7.13;100.00;101535.13;5005340;28;20060;-93
2023/04/07 05:33:58;;;;;;;21.27;7.03;;;;;;;7.06;100.00;101530.81;5002989;28;20026;-93
2023/04/07 05:36:24;;;;;;;29.50;6.97;;;;;;;7.14;100.00;101542.88;5006580;28;20112;-93
2023/04/07 05:38:52;;;;;;;27.83;7.50;;;;;;;7.13;100.00;101542.88;5005948;28;20116;-93
2023/04/07 05:41:18;;;;;;;22.98;7.28;;;;;;;7.19;100.00;101542.00;4987887;28;20053;-92
2023/04/07 05:43:43;;;;;;;27.10;8.02;;;;;;;7.20;100.00;101548.88;5005871;28;20460;-92
2023/04/07 05:46:08;;;;;;;31.67;8.10;;;;;;;7.23;100.00;101549.78;4985212;28;20188;-92
2023/04/07 05:48:34;;;;;;;25.25;7.57;;;;;;;7.16;100.00;101531.72;4986085;28;20026;-92
2023/04/07 05:51:00;;;;;;;24.90;7.63;;;;;;;7.25;100.00;101555.75;4986158;28;20569;-92
2023/04/07 05:53:25;;;;;;;26.65;8.23;;;;;;;7.23;100.00;101543.75;5003386;28;20433;-92
2023/04/07 05:55:57;;;;;;;28.42;7.28;;;;;;;7.27;100.00;101550.63;5003241;28;20048;-91
2023/04/07 05:58:23;;;;;;;26.65;7.88;;;;;;;7.27;100.00;101540.31;4986027;28;20449;-91
2023/04/07 06:00:49;;;;;;;26.05;8.23;;;;;;;7.35;100.00;101546.34;4986782;28;20529;-91
2023/04/07 06:03:15;;;;;;;27.85;8.32;;;;;;;7.40;100.00;101554.94;4988840;28;20037;-91
2023/04/07 06:05:45;;;;;;;29.65;8.57;;;;;;;7.48;100.00;101555.78;5006034;28;20026;-91
2023/04/07 06:08:16;;;;;;;23.67;7.80;;;;;;;7.50;100.00;101554.94;5005125;28;20519;-91
2023/04/07 06:10:43;;;;;;;28.50;8.63;;;;;;;7.44;100.00;101542.03;5004459;28;20219;-92
2023/04/07 06:13:08;;;;;;;33.13;8.30;;;;;;;7.57;100.00;101568.72;5006347;28;20382;-91
2023/04/07 06:15:34;;;;;;;24.92;7.88;;;;;;;7.53;100.00;101567.84;5005963;28;20782;-91
2023/04/07 06:17:59;;;;;;;28.20;8.40;;;;;;;7.50;100.00;101560.13;5005740;28;20069;-91
2023/04/07 06:20:26;;;;;;;26.83;8.80;;;;;;;7.49;100.00;101560.09;4986158;28;20099;-92
2023/04/07 06:22:53;;;;;;;23.98;8.32;;;;;;;7.58;100.00;101574.69;5004540;28;20203;-91
2023/04/07 06:25:21;;;;;;;23.77;8.93;;;;;;;7.47;100.00;101565.25;5002891;28;20034;-92
2023/04/07 06:27:46;;;;;;;21.85;8.27;;;;;;;7.52;100.00;101571.25;5004360;28;20030;-91
2023/04/07 06:30:12;;;;;;;29.73;8.80;;;;;;;7.56;100.00;101573.88;5001878;28;20029;-92
2023/04/07 06:32:37;;;;;;;27.17;9.02;;;;;;;7.51;100.00;101569.53;5004454;28;20457;-92
2023/04/07 06:35:03;;;;;;;27.30;8.75;;;;;;;7.55;100.00;101578.16;5005063;28;20155;-92
2023/04/07 06:37:29;;;;;;;30.50;9.05;;;;;;;7.61;100.00;101582.44;5005260;28;20044;-91
2023/04/07 06:39:54;;;;;;;23.23;8.70;;;;;;;7.65;100.00;101586.75;4985899;28;20033;-90
2023/04/07 06:42:20;;;;;;;23.35;8.60;;;;;;;7.75;100.00;101580.75;4986996;28;21016;-91
2023/04/07 06:44:45;;;;;;;24.88;8.75;;;;;;;7.83;100.00;101590.22;5005041;28;20034;-91
2023/04/07 06:47:13;;;;;;;24.98;7.80;;;;;;;7.85;100.00;101582.44;5003822;28;20033;-91
2023/04/07 06:49:39;;;;;;;20.73;6.90;;;;;;;7.98;100.00;101598.81;5004643;28;20681;-93
2023/04/07 06:52:05;;;;;;;21.25;6.57;;;;;;;8.02;100.00;101605.66;4986622;28;20042;-92
2023/04/07 06:54:33;;;;;;;16.10;6.57;;;;;;;8.01;100.00;101597.06;4986256;28;20030;-92
2023/04/07 06:56:58;;;;;;;14.80;6.05;;;;;;;8.01;100.00;101593.63;4986211;28;20052;-92
2023/04/07 06:59:24;;;;;;;17.40;6.47;;;;;;;8.00;100.00;101591.88;4986750;28;20434;-92
2023/04/07 07:01:49;;;;;;;13.82;6.30;;;;;;;8.03;100.00;101592.75;5004825;28;20113;-92
2023/04/07 07:06:50;;;;;;;17.55;6.53;;;;;;;8.18;100.00;101610.81;4208463;23;20245;-83
2023/04/07 07:09:43;;;;;;;20.42;6.55;;;;;;;8.18;100.00;101610.81;4988241;23;20051;-94
2023/04/07 07:17:21;;;;;;;17.23;6.38;;;;;;;8.45;100.00;101606.50;5023102;23;21093;-93
2023/04/07 07:19:47;;;;;;;18.98;6.57;;;;;;;8.54;100.00;101619.38;5085915;23;20075;-83
2023/04/07 07:22:12;;;;;;;16.42;6.50;;;;;;;8.55;100.00;101614.19;5162468;23;20078;-89
2023/04/07 07:24:40;;;;;;;20.55;6.68;;;;;;;8.63;100.00;101625.38;5199089;23;20138;-89
2023/04/07 07:27:06;;;;;;;20.33;7.20;;;;;;;8.61;100.00;101618.47;5055652;23;20594;-89
2023/04/07 07:29:31;;;;;;;16.27;6.90;;;;;;;8.66;100.00;101617.63;5101675;23;20127;-90
2023/04/07 07:32:03;;;;;;;14.02;5.80;;;;;;;8.58;100.00;101603.88;4982697;23;20117;-95
2023/04/07 07:34:33;;;;;;;16.20;6.00;;;;;;;8.65;100.00;101618.50;4928192;29;20038;-96
2023/04/07 07:37:02;;;;;;;16.10;5.78;;;;;;;8.70;100.00;101614.16;4946602;28;20581;-96
2023/04/07 07:39:55;;;;;;;12.65;5.40;;;;;;;8.82;100.00;101638.22;5036298;23;20545;31
2023/04/07 07:44:51;;;;;;;12.82;5.03;;;;;;;8.70;100.00;101637.41;5003694;23;20537;-83
2023/04/07 07:52:33;;;;;;;14.77;5.20;;;;;;;8.92;100.00;101629.59;4886435;23;20505;-82
2023/04/07 08:02:49;;;;;;;15.50;6.68;;;;;;;9.20;100.00;101654.44;4261559;23;21180;-90
2023/04/07 08:05:22;;;;;;;;;;;;;;;9.38;100.00;101656.06;4993199;23;20186;-96
2023/04/07 08:10:30;;;;;;;13.90;6.88;;;;;;;9.40;100.00;101660.38;4912216;23;20422;-82
2023/04/07 08:12:56;;;;;;;17.50;6.82;;;;;;;9.36;100.00;101656.06;5095391;23;20063;-93
2023/04/07 08:15:21;;;;;;;15.25;6.53;;;;;;;9.46;100.00;101660.34;5267792;23;20030;-83
2023/04/07 08:17:46;;;;;;;14.15;6.28;;;;;;;9.45;100.00;101670.69;5002364;23;20130;-82
2023/04/07 08:20:12;;;;;;;12.98;6.18;;;;;;;9.43;100.00;101677.59;4894364;23;20142;-83
2023/04/07 08:22:59;;;;;;;16.65;5.93;;;;;;;9.28;100.00;101669.94;5080626;23;20130;-89
2023/04/07 08:25:24;;;;;;;13.90;5.90;;;;;;;9.30;100.00;101675.94;5251016;23;20066;-83
2023/04/07 08:30:20;;;;;;;15.25;6.10;;;;;;;9.33;100.00;101676.81;4945436;28;20055;-83
2023/04/07 08:33:11;;;;;;;13.68;6.07;;;;;;;9.44;100.00;101681.91;5035720;23;20587;31
2023/04/07 08:38:25;;;;;;;10.45;5.45;;;;;;;9.45;100.00;101681.03;4320197;23;21016;-83
2023/04/07 08:40:57;;;;;;;12.63;5.30;;;;;;;9.46;100.00;101683.63;4920410;29;20067;-83
2023/04/07 08:43:25;;;;;;;9.10;5.10;;;;;;;9.37;100.00;101691.44;4940012;29;20113;-83
2023/04/07 08:45:54;;;;;;;14.15;5.20;;;;;;;9.39;100.00;101689.69;4939515;29;20466;-83
2023/04/07 08:48:32;;;;;;;15.55;5.47;;;;;;;9.42;100.00;101679.31;5045025;23;20083;-93
2023/04/07 08:53:51;;;;;;;16.05;5.40;;;;;;;9.81;100.00;101682.53;5005762;23;20293;-83
2023/04/07 08:56:17;;;;;;;13.60;5.15;;;;;;;10.15;100.00;101676.22;5074625;23;20095;-82
2023/04/07 09:01:35;;;;;;;9.60;4.32;;;;;;;11.20;100.00;101695.88;4980598;23;20047;-83
2023/04/07 09:04:02;;;;;;;12.80;4.90;;;;;;;11.22;100.00;101698.44;5070380;23;20085;-83
2023/04/07 09:06:30;;;;;;;10.20;4.05;;;;;;;11.11;100.00;101693.41;4843726;23;20071;-94
2023/04/07 09:08:59;;;;;;;10.43;4.28;;;;;;;11.04;100.00;101715.97;4946239;23;20051;-83
2023/04/07 09:11:29;;;;;;;11.18;4.65;;;;;;;11.00;100.00;101710.81;4938664;23;20462;-83
2023/04/07 09:13:55;;;;;;;11.00;5.30;;;;;;;10.95;100.00;101717.81;4940583;28;20441;-83
2023/04/07 09:19:14;;;;;;;9.90;4.65;;;;;;;10.77;100.00;101720.59;4760678;23;20114;31
2023/04/07 09:24:28;;;;;;;11.02;4.40;;;;;;;10.44;100.00;101707.06;4854414;23;20043;31
2023/04/07 09:29:26;;;;;;;8.52;4.20;;;;;;;10.39;100.00;101728.72;4227674;23;20478;-83
2023/04/07 09:32:12;;;;;;;10.75;3.95;;;;;;;10.22;100.00;101713.34;4991015;23;20451;-90
2023/04/07 09:37:39;;;;;;;10.57;4.50;;;;;;;10.10;100.00;101703.88;4947215;23;20161;-89
2023/04/07 09:43:30;;;;;;;10.68;4.22;;;;;;;10.35;100.00;101709.78;5071130;23;20091;-89
2023/04/07 09:48:24;;;;;;;13.35;4.03;;;;;;;10.25;100.00;101718.47;4951869;23;20063;-90
2023/04/07 09:54:20;;;;;;;13.85;4.03;;;;;;;10.18;100.00;101733.22;4443757;23;20248;-89
2023/04/07 09:56:46;;;;;;;10.15;3.70;;;;;;;10.15;100.00;101728.03;4993553;23;20423;-82
2023/04/07 09:59:13;;;;;;;12.88;4.95;;;;;;;10.10;100.00;101723.78;4972045;23;20061;-83
2023/04/07 10:01:40;;;;;;;13.98;4.43;;;;;;;10.12;100.00;101732.38;5115922;23;20041;-83
2023/04/07 10:04:06;;;;;;;9.07;4.15;;;;;;;10.15;100.00;101734.97;5241886;23;20031;-82
2023/04/07 10:11:32;;;;;;;9.80;3.92;;;;;;;10.36;100.00;101734.81;5080915;23;20701;-83
2023/04/07 10:13:57;;;;;;;14.88;4.70;;;;;;;10.25;100.00;101728.84;4978888;23;20156;-93
2023/04/07 10:18:59;;;;;;;10.73;3.80;;;;;;;10.10;100.00;101742.75;4837038;23;20122;-82
2023/04/07 10:21:25;;;;;;;11.93;3.95;;;;;;;10.04;100.00;101740.19;5076673;23;20028;-82
2023/04/07 10:26:27;;;;;;;;;;;;;;;10.09;100.00;101738.47;5006661;23;20040;-83
2023/04/07 10:29:03;;;;;;;9.63;3.28;;;;;;;9.98;100.00;101734.19;4945961;23;19922;-92
2023/04/07 10:31:37;;;;;;;12.13;3.63;;;;;;;10.14;100.00;101748.78;4985514;23;20075;31
2023/04/07 10:36:33;;;;;;;12.02;3.85;;;;;;;10.32;100.00;101755.56;4909980;23;20292;-87
2023/04/07 10:39:08;;;;;;;13.45;4.35;;;;;;;10.38;100.00;101758.09;5094198;23;20523;-87
2023/04/07 10:41:37;;;;;;;13.02;5.10;;;;;;;10.46;100.00;101759.78;4984763;23;20103;-83
2023/04/07 10:44:06;;;;;;;11.00;4.25;;;;;;;10.58;100.00;101762.25;4989529;23;20047;-87
2023/04/07 10:46:44;;;;;;;8.07;4.07;;;;;;;10.60;100.00;101767.44;5041897;23;20086;-83
2023/04/07 10:49:10;;;;;;;15.57;3.60;;;;;;;10.54;100.00;101768.34;5144688;23;20029;-83
2023/04/07 10:57:06;;;;;;;8.85;3.30;;;;;;;10.36;100.00;101776.28;4966852;23;20086;-89
2023/04/07 10:59:35;;;;;;;12.52;3.42;;;;;;;10.29;100.00;101753.88;4909070;29;20044;-90
2023/04/07 11:02:29;;;;;;;8.90;3.42;;;;;;;10.56;100.00;101760.56;5057738;23;20754;-92
2023/04/07 11:07:43;;;;;;;10.23;3.72;;;;;;;10.47;100.00;101764.09;4966770;23;20091;-90
2023/04/07 11:12:35;;;;;;;10.13;3.60;;;;;;;10.24;100.00;101782.41;4985034;23;20043;-83
2023/04/07 11:15:16;;;;;;;9.63;3.47;;;;;;;10.18;100.00;101772.09;5114107;23;20051;-83
2023/04/07 11:17:45;;;;;;;9.38;3.35;;;;;;;10.26;100.00;101783.25;4999436;23;20134;-91
2023/04/07 11:22:39;;;;;;;10.35;3.95;;;;;;;10.44;100.00;101781.41;5104177;23;20102;-84
2023/04/07 11:27:53;;;;;;;11.00;4.18;;;;;;;10.49;100.00;101774.44;5011758;23;20500;-96
2023/04/07 11:33:55;;;;;;;12.40;4.10;;;;;;;10.32;100.00;101771.97;4947954;28;20381;-96
2023/04/07 11:36:51;;;;;;;11.23;4.15;;;;;;;10.15;100.00;101759.13;4956780;28;20812;-96
2023/04/07 11:46:58;;;;;;;13.23;3.80;;;;;;;10.15;100.00;101771.22;4827569;29;20077;-96
2023/04/07 11:49:54;;;;;;;14.07;5.07;;;;;;;10.22;100.00;101789.34;4808266;29;20121;-96
2023/04/07 11:52:55;;;;;;;9.25;3.80;;;;;;;10.15;100.00;101782.44;4806718;29;20145;-96
2023/04/07 11:56:15;;;;;;;12.30;4.13;;;;;;;10.12;100.00;101771.22;4835314;29;20044;-96
2023/04/07 11:59:43;;;;;;;;;;;;;;;;;;;;;
2023/04/07 12:02:58;;;;;;;;;;;;;;;;;;;;;
2023/04/07 12:06:16;;;;;;;;;;;;;;;;;;;;;
2023/04/07 12:09:23;;;;;;;;;;;;;;;;;;;;;
2023/04/07 12:12:52;;;;;;;;;;;;;;;;;;;;;
2023/04/07 12:19:18;;;;;;;;;;;;;;;11.16;100.00;101812.72;4837257;29;20038;-95
2023/04/07 12:24:56;;;;;;;12.50;4.10;;;;;;;11.47;94.06;101819.25;4915166;23;20603;-83
2023/04/07 12:27:22;;;;;;;12.48;4.35;;;;;;;11.28;94.92;101812.56;4961917;28;21011;-83
2023/04/07 12:29:47;;;;;;;11.07;4.00;;;;;;;11.03;97.10;101815.44;4978167;23;20040;-79
2023/04/07 12:35:07;;;;;;;10.68;3.90;;;;;;;10.47;98.36;101810.75;4917053;29;20032;-96
2023/04/07 12:37:33;;;;;;;9.98;3.83;;;;;;;10.37;98.25;101816.88;4909882;29;20062;-95
2023/04/07 12:39:59;;;;;;;12.52;4.03;;;;;;;10.35;97.56;101831.56;4933356;23;20649;-79
2023/04/07 12:43:03;;;;;;;;;;;;;;;;;;;;;
2023/04/07 12:45:30;;;;;;;10.70;3.92;;;;;;;10.31;100.00;101809.13;4891289;29;20119;-96
2023/04/07 12:51:05;;;;;;;10.90;3.40;;;;;;;10.56;96.69;101828.84;4920718;29;20129;-95
2023/04/07 12:54:23;;;;;;;12.38;3.85;;;;;;;10.49;100.00;101813.34;4939805;29;20040;-96
2023/04/07 12:57:28;;;;;;;;;;;;;;;;;;;;;
2023/04/07 13:00:19;;;;;;;10.52;3.65;;;;;;;10.37;99.40;101840.22;4917696;29;20104;-95
2023/04/07 13:03:30;;;;;;;11.77;3.80;;;;;;;10.23;100.00;101818.72;4916048;29;20039;-96
2023/04/07 13:09:51;;;;;;;12.15;5.18;;;;;;;10.61;100.00;101815.81;4883091;29;20041;-96
2023/04/07 13:12:31;;;;;;;11.05;4.18;;;;;;;10.80;99.23;101830.34;4852123;29;20092;-94
2023/04/07 13:15:12;;;;;;;12.45;4.70;;;;;;;10.84;96.84;101850.22;4867309;29;20610;-95
2023/04/07 13:18:31;;;;;;;11.85;4.47;;;;;;;10.68;98.49;101851.19;4861944;29;20110;-96
2023/04/07 13:20:56;;;;;;;11.45;4.57;;;;;;;10.36;96.72;101833.31;4849583;29;20101;-95
2023/04/07 13:23:35;;;;;;;12.50;4.80;;;;;;;10.24;100.00;101848.91;4860912;29;20078;-96
2023/04/07 13:26:19;;;;;;;12.05;4.43;;;;;;;10.05;100.00;101840.34;4869237;29;20037;-95
2023/04/07 13:28:55;;;;;;;9.57;4.45;;;;;;;10.00;99.97;101839.53;4861999;29;20189;-96
2023/04/07 13:31:22;;;;;;;14.38;5.28;;;;;;;9.96;100.00;101834.38;4861685;29;20573;-95
2023/04/07 13:33:55;;;;;;;8.95;4.65;;;;;;;10.05;100.00;101842.09;4851894;29;20132;-96